DHX275 EHAM-ZSPD
Flight info
| Callsign | DHX275 |
|---|---|
| Flight time | N/A |
| Altitude | 29000 |
| Route | EDUPO Z739 MISGO DCT TIVUN DCT ESAMA DCT OSBIT DCT TENLO DCT LAMSI DCT STEIN DCT TEGRI DCT DINRO/N0492F310 DCT UDROS DCT CRM UM11 TBN UG261 NOLGA DCT BARAD M747 SUBUT T916 BALUN/K0913F310 T916 EFMIF/K0906F330 T916 PIGAL M610 RULAD/K0902S1010 A343 POSOT B215 FKG W188 LIKMI W270 POPIB/K0889S1070 W270 DKO W69 HUR B339 SOTMU/K0895S1040 W98 ELKUR W40 DOXAB/K0896S1070 W40 YQG/K0891S1100 W142 DALIM/K0896S1070 A593 DPX A470 DALNU W166 ZJ W167 SASAN SAS92A |
| Aircraft | B77L/H-SDE1E2E3FGHIJ2J3J4J5M1RWXY/LB1D1 |
Departure
| Time | 2026-05-07 11:18 |
|---|---|
| Airport | Amsterdam Airport Schiphol (EHAM) |
Arrival
| Time | N/A |
|---|---|
| Airport | Shanghai Pudong International Airport (ZSPD) |
| Time | Latitude | Longitude | Altitude | Speed | Heading |
|---|---|---|---|---|---|
| 2026-05-07 10:46 | 52.30051 | 4.75373 | 4 ft | 0 kts | 238° |
| 2026-05-07 10:57 | 52.30052 | 4.75373 | 3 ft | 0 kts | 238° |
| 2026-05-07 11:08 | 52.30051 | 4.75372 | 3 ft | 1 kts | 238° |
| 2026-05-07 11:09 | 52.30041 | 4.75345 | 3 ft | 5 kts | 238° |
| 2026-05-07 11:09 | 52.30010 | 4.75318 | 3 ft | 5 kts | 178° |
| 2026-05-07 11:09 | 52.29977 | 4.75350 | 3 ft | 5 kts | 144° |
| 2026-05-07 11:09 | 52.29946 | 4.75384 | 3 ft | 6 kts | 147° |
| 2026-05-07 11:10 | 52.29913 | 4.75418 | 3 ft | 6 kts | 147° |
| 2026-05-07 11:10 | 52.29878 | 4.75428 | 3 ft | 4 kts | 199° |
| 2026-05-07 11:10 | 52.29859 | 4.75392 | 3 ft | 4 kts | 237° |
| 2026-05-07 11:10 | 52.29843 | 4.75350 | 3 ft | 4 kts | 241° |
| 2026-05-07 11:11 | 52.29833 | 4.75303 | 3 ft | 4 kts | 256° |
| 2026-05-07 11:11 | 52.29831 | 4.75254 | 3 ft | 4 kts | 272° |
| 2026-05-07 11:11 | 52.29843 | 4.75201 | 3 ft | 5 kts | 301° |
| 2026-05-07 11:11 | 52.29868 | 4.75148 | 3 ft | 8 kts | 311° |
| 2026-05-07 11:12 | 52.29912 | 4.75066 | 3 ft | 10 kts | 311° |
| 2026-05-07 11:12 | 52.29958 | 4.74980 | 3 ft | 10 kts | 311° |
| 2026-05-07 11:12 | 52.30004 | 4.74893 | 3 ft | 10 kts | 311° |
| 2026-05-07 11:12 | 52.30053 | 4.74803 | 4 ft | 11 kts | 311° |
| 2026-05-07 11:13 | 52.30101 | 4.74713 | 8 ft | 11 kts | 311° |
| 2026-05-07 11:13 | 52.30151 | 4.74622 | 14 ft | 11 kts | 311° |
| 2026-05-07 11:13 | 52.30200 | 4.74530 | 14 ft | 11 kts | 311° |
| 2026-05-07 11:13 | 52.30250 | 4.74439 | 14 ft | 11 kts | 311° |
| 2026-05-07 11:14 | 52.30302 | 4.74343 | 10 ft | 14 kts | 311° |
| 2026-05-07 11:14 | 52.30365 | 4.74223 | 3 ft | 11 kts | 302° |
| 2026-05-07 11:14 | 52.30362 | 4.74103 | 3 ft | 11 kts | 243° |
| 2026-05-07 11:14 | 52.30308 | 4.74014 | 3 ft | 11 kts | 213° |
| 2026-05-07 11:15 | 52.30236 | 4.73934 | 3 ft | 15 kts | 215° |
| 2026-05-07 11:15 | 52.30189 | 4.73809 | 2 ft | 9 kts | 264° |
| 2026-05-07 11:15 | 52.30197 | 4.73763 | 2 ft | 7 kts | 304° |
| 2026-05-07 11:15 | 52.30241 | 4.73742 | 1 ft | 1 kts | 2° |
| 2026-05-07 11:17 | 52.30244 | 4.73742 | 1 ft | 6 kts | 3° |
| 2026-05-07 11:17 | 52.30503 | 4.73766 | 1 ft | 76 kts | 3° |
| 2026-05-07 11:18 | 52.31298 | 4.73841 | 2 ft | 152 kts | 3° |
| 2026-05-07 11:18 | 52.32548 | 4.73948 | 226 ft | 194 kts | 3° |
| 2026-05-07 11:18 | 52.33860 | 4.74064 | 1253 ft | 182 kts | 10° |
| 2026-05-07 11:18 | 52.35051 | 4.74762 | 1755 ft | 195 kts | 27° |
| 2026-05-07 11:19 | 52.36332 | 4.75810 | 1942 ft | 215 kts | 27° |
| 2026-05-07 11:19 | 52.37764 | 4.76933 | 1983 ft | 239 kts | 29° |
| 2026-05-07 11:19 | 52.39039 | 4.78670 | 2530 ft | 239 kts | 49° |
| 2026-05-07 11:19 | 52.40152 | 4.80720 | 3251 ft | 243 kts | 46° |
| 2026-05-07 11:20 | 52.41316 | 4.82743 | 3970 ft | 244 kts | 47° |
| 2026-05-07 11:20 | 52.42200 | 4.85087 | 4560 ft | 245 kts | 75° |
| 2026-05-07 11:20 | 52.42390 | 4.87885 | 5181 ft | 245 kts | 88° |
| 2026-05-07 11:20 | 52.42392 | 4.90705 | 5572 ft | 258 kts | 87° |
| 2026-05-07 11:21 | 52.42404 | 4.93647 | 6208 ft | 259 kts | 88° |
| 2026-05-07 11:21 | 52.42377 | 4.96607 | 6782 ft | 261 kts | 97° |
| 2026-05-07 11:21 | 52.41716 | 4.99410 | 6881 ft | 274 kts | 131° |
| 2026-05-07 11:21 | 52.40252 | 5.01440 | 7207 ft | 280 kts | 146° |
| 2026-05-07 11:22 | 52.38636 | 5.03273 | 7693 ft | 285 kts | 145° |
| 2026-05-07 11:22 | 52.37002 | 5.05158 | 8302 ft | 288 kts | 145° |
| 2026-05-07 11:22 | 52.35380 | 5.07029 | 8918 ft | 290 kts | 145° |
| 2026-05-07 11:22 | 52.33729 | 5.08936 | 9531 ft | 292 kts | 144° |
| 2026-05-07 11:23 | 52.32215 | 5.11168 | 10032 ft | 296 kts | 133° |
| 2026-05-07 11:23 | 52.30840 | 5.13742 | 10407 ft | 307 kts | 130° |
| 2026-05-07 11:23 | 52.29415 | 5.16487 | 10539 ft | 326 kts | 131° |
| 2026-05-07 11:23 | 52.27883 | 5.19363 | 10693 ft | 345 kts | 132° |
| 2026-05-07 11:24 | 52.26246 | 5.22366 | 10868 ft | 363 kts | 132° |
| 2026-05-07 11:24 | 52.24538 | 5.25471 | 11330 ft | 371 kts | 132° |
| 2026-05-07 11:24 | 52.22894 | 5.28772 | 11869 ft | 378 kts | 127° |
| 2026-05-07 11:24 | 52.21391 | 5.32243 | 12475 ft | 382 kts | 124° |
| 2026-05-07 11:25 | 52.19889 | 5.35841 | 13103 ft | 386 kts | 124° |
| 2026-05-07 11:25 | 52.18386 | 5.39427 | 13746 ft | 390 kts | 125° |
| 2026-05-07 11:25 | 52.16856 | 5.43029 | 14300 ft | 394 kts | 125° |
| 2026-05-07 11:25 | 52.15249 | 5.46757 | 14846 ft | 398 kts | 126° |
| 2026-05-07 11:26 | 52.13648 | 5.50443 | 15452 ft | 400 kts | 126° |
| 2026-05-07 11:26 | 52.12030 | 5.54144 | 16033 ft | 403 kts | 126° |
| 2026-05-07 11:26 | 52.10389 | 5.57892 | 16528 ft | 409 kts | 126° |
| 2026-05-07 11:26 | 52.08760 | 5.61609 | 17107 ft | 410 kts | 126° |
| 2026-05-07 11:27 | 52.07096 | 5.65399 | 17697 ft | 413 kts | 126° |
| 2026-05-07 11:27 | 52.05383 | 5.69184 | 18161 ft | 418 kts | 129° |
| 2026-05-07 11:27 | 52.03492 | 5.72793 | 18651 ft | 420 kts | 133° |
| 2026-05-07 11:27 | 52.01536 | 5.76320 | 19199 ft | 421 kts | 133° |
| 2026-05-07 11:28 | 51.99581 | 5.79892 | 19656 ft | 425 kts | 132° |
| 2026-05-07 11:28 | 51.97633 | 5.83513 | 20093 ft | 428 kts | 131° |
| 2026-05-07 11:28 | 51.95674 | 5.87177 | 20553 ft | 430 kts | 131° |
| 2026-05-07 11:28 | 51.93705 | 5.90847 | 21068 ft | 433 kts | 132° |
| 2026-05-07 11:29 | 51.91753 | 5.94482 | 21531 ft | 435 kts | 132° |
| 2026-05-07 11:29 | 51.89758 | 5.98189 | 21999 ft | 437 kts | 132° |
| 2026-05-07 11:29 | 51.87753 | 6.01910 | 22419 ft | 441 kts | 132° |
| 2026-05-07 11:29 | 51.85732 | 6.05653 | 22853 ft | 444 kts | 132° |
| 2026-05-07 11:30 | 51.83687 | 6.09418 | 23320 ft | 446 kts | 132° |
| 2026-05-07 11:30 | 51.81628 | 6.13181 | 23746 ft | 448 kts | 132° |
| 2026-05-07 11:30 | 51.79560 | 6.16960 | 24098 ft | 451 kts | 132° |
| 2026-05-07 11:30 | 51.77473 | 6.20767 | 24445 ft | 453 kts | 132° |
| 2026-05-07 11:31 | 51.75415 | 6.24522 | 24777 ft | 452 kts | 132° |
| 2026-05-07 11:31 | 51.73337 | 6.28317 | 24848 ft | 450 kts | 132° |
| 2026-05-07 11:31 | 51.71268 | 6.32093 | 24888 ft | 449 kts | 132° |
| 2026-05-07 11:31 | 51.69198 | 6.35868 | 24965 ft | 448 kts | 132° |
| 2026-05-07 11:32 | 51.65049 | 6.43412 | 25255 ft | 454 kts | 132° |
| 2026-05-07 11:32 | 51.62952 | 6.47215 | 25596 ft | 453 kts | 132° |
| 2026-05-07 11:32 | 51.60862 | 6.50998 | 25677 ft | 451 kts | 132° |
| 2026-05-07 11:33 | 51.58796 | 6.54733 | 25812 ft | 456 kts | 132° |
| 2026-05-07 11:33 | 51.56674 | 6.58565 | 26092 ft | 460 kts | 132° |
| 2026-05-07 11:33 | 51.54539 | 6.62414 | 26422 ft | 462 kts | 132° |
| 2026-05-07 11:33 | 51.52392 | 6.66278 | 26722 ft | 466 kts | 132° |
| 2026-05-07 11:34 | 51.50225 | 6.70175 | 26967 ft | 470 kts | 132° |
| 2026-05-07 11:34 | 51.48042 | 6.74099 | 27277 ft | 472 kts | 132° |